^^
Meteo Knjazevac Station Historical Data
Daily Summary for September 23, 2021 Units:  Both    English   Metric
Daily Weekly Monthly Yearly Custom
  High: Low: Average:
Temperature: 59.9 °F /  15.5 °C 48 °F /  8.9 °C 53.1 °F /  11.7 °C
Dew Point: 50.7 °F /  10.4 °C 43.5 °F /  6.4 °C 46.1 °F /  7.8 °C
Humidity: 88% 68% 78%
Wind Speed: 3mph /  4.8km/h - 1.1mph /  1.8km/h
Wind Gust: 7mph /  11.3km/h - -
Wind- - SSE
Pressure: 30.11 in /  1019.5 hPa 30.06 in /  1017.8 hPa -
Precipitation: 0.00 in /  0 mm    
Historical Graphs
 
 
Tabular Data for September 23, 2021
Time Temperature Dew Point Pressure Wind Wind Speed Wind Gust Humidity Rainfall Rate (Hourly) solar Conditions
00:00 59.9 °F /  15.5 °C 49.7 °F /  9.8 °C 30.06in /  1017.8hPa NE 2mph /  3.2km/h 7mph /  11.3km/h 69% 0.00in /  0mm 0 W/m2
00:10 59.7 °F /  15.4 °C 49.5 °F /  9.7 °C 30.07in /  1018.2hPa ESE 1mph /  1.6km/h 5mph /  8km/h 69% 0.00in /  0mm 0 W/m2
00:20 59.2 °F /  15.1 °C 48.6 °F /  9.2 °C 30.06in /  1017.8hPa Calm   3mph /  4.8km/h 68% 0.00in /  0mm 0 W/m2
00:30 58.8 °F /  14.9 °C 48.3 °F /  9.1 °C 30.06in /  1017.8hPa NNE 3mph /  4.8km/h 6mph /  9.7km/h 68% 0.00in /  0mm 0 W/m2
00:40 58.5 °F /  14.7 °C 48.7 °F /  9.3 °C 30.06in /  1017.8hPa North 2mph /  3.2km/h 7mph /  11.3km/h 70% 0.00in /  0mm 0 W/m2
00:50 58.3 °F /  14.6 °C 49.3 °F /  9.6 °C 30.07in /  1018.2hPa Calm   2mph /  3.2km/h 72% 0.00in /  0mm 0 W/m2
01:00 57.7 °F /  14.3 °C 47.6 °F /  8.7 °C 30.07in /  1018.2hPa North 2mph /  3.2km/h 3mph /  4.8km/h 69% 0.00in /  0mm 0 W/m2
01:10 56.8 °F /  13.8 °C 46.8 °F /  8.2 °C 30.07in /  1018.2hPa NW 1mph /  1.6km/h 3mph /  4.8km/h 69% 0.00in /  0mm 0 W/m2
01:20 56.2 °F /  13.4 °C 45.8 °F /  7.7 °C 30.07in /  1018.2hPa Calm   5mph /  8km/h 68% 0.00in /  0mm 0 W/m2
01:30 55.8 °F /  13.2 °C 45.4 °F /  7.4 °C 30.07in /  1018.2hPa NNE 1mph /  1.6km/h 2mph /  3.2km/h 68% 0.00in /  0mm 0 W/m2
01:40 55.6 °F /  13.1 °C 45.2 °F /  7.3 °C 30.07in /  1018.2hPa ESE 2mph /  3.2km/h 4mph /  6.4km/h 68% 0.00in /  0mm 0 W/m2
01:50 55 °F /  12.8 °C 45.1 °F /  7.3 °C 30.07in /  1018.2hPa South 2mph /  3.2km/h 3mph /  4.8km/h 69% 0.00in /  0mm 0 W/m2
02:00 54.9 °F /  12.7 °C 44.5 °F /  6.9 °C 30.07in /  1018.2hPa ESE 2mph /  3.2km/h 5mph /  8km/h 68% 0.00in /  0mm 0 W/m2
02:10 54.7 °F /  12.6 °C 44.3 °F /  6.8 °C 30.07in /  1018.2hPa SSE 1mph /  1.6km/h 6mph /  9.7km/h 68% 0.00in /  0mm 0 W/m2
02:20 54.5 °F /  12.5 °C 44.9 °F /  7.2 °C 30.07in /  1018.2hPa NNW 1mph /  1.6km/h 3mph /  4.8km/h 70% 0.00in /  0mm 0 W/m2
02:30 54.1 °F /  12.3 °C 44.6 °F /  7 °C 30.07in /  1018.2hPa East 1mph /  1.6km/h 3mph /  4.8km/h 70% 0.00in /  0mm 0 W/m2
02:40 54 °F /  12.2 °C 45.1 °F /  7.3 °C 30.07in /  1018.2hPa ESE 2mph /  3.2km/h 4mph /  6.4km/h 72% 0.00in /  0mm 0 W/m2
02:50 53.8 °F /  12.1 °C 46 °F /  7.8 °C 30.07in /  1018.2hPa ENE 2mph /  3.2km/h 4mph /  6.4km/h 75% 0.00in /  0mm 0 W/m2
03:00 53.4 °F /  11.9 °C 46.4 °F /  8 °C 30.08in /  1018.5hPa Calm   3mph /  4.8km/h 77% 0.00in /  0mm 0 W/m2
03:10 53.2 °F /  11.8 °C 46.6 °F /  8.1 °C 30.07in /  1018.2hPa NE 3mph /  4.8km/h 5mph /  8km/h 78% 0.00in /  0mm 0 W/m2
03:20 52.9 °F /  11.6 °C 46.2 °F /  7.9 °C 30.07in /  1018.2hPa Calm   3mph /  4.8km/h 78% 0.00in /  0mm 0 W/m2
03:30 52.4 °F /  11.3 °C 45.8 °F /  7.7 °C 30.07in /  1018.2hPa Calm   2mph /  3.2km/h 78% 0.00in /  0mm 0 W/m2
03:40 51.8 °F /  11 °C 45.5 °F /  7.5 °C 30.08in /  1018.5hPa Calm   2mph /  3.2km/h 79% 0.00in /  0mm 0 W/m2
03:50 51.3 °F /  10.7 °C 45 °F /  7.2 °C 30.07in /  1018.2hPa NNW 1mph /  1.6km/h 2mph /  3.2km/h 79% 0.00in /  0mm 0 W/m2
04:00 51.1 °F /  10.6 °C 44.8 °F /  7.1 °C 30.08in /  1018.5hPa Calm   2mph /  3.2km/h 79% 0.00in /  0mm 0 W/m2
04:10 51.1 °F /  10.6 °C 44.8 °F /  7.1 °C 30.08in /  1018.5hPa ENE 2mph /  3.2km/h 6mph /  9.7km/h 79% 0.00in /  0mm 0 W/m2
04:20 51.3 °F /  10.7 °C 45.6 °F /  7.6 °C 30.08in /  1018.5hPa East 1mph /  1.6km/h 6mph /  9.7km/h 81% 0.00in /  0mm 0 W/m2
04:30 51.2 °F /  10.7 °C 45.5 °F /  7.5 °C 30.08in /  1018.5hPa Calm   4mph /  6.4km/h 81% 0.00in /  0mm 0 W/m2
04:40 50.7 °F /  10.4 °C 45.1 °F /  7.3 °C 30.08in /  1018.5hPa Calm   3mph /  4.8km/h 81% 0.00in /  0mm 0 W/m2
04:50 50.6 °F /  10.3 °C 45 °F /  7.2 °C 30.08in /  1018.5hPa Calm   5mph /  8km/h 81% 0.00in /  0mm 0 W/m2
05:00 50.2 °F /  10.1 °C 44.9 °F /  7.2 °C 30.08in /  1018.5hPa North 1mph /  1.6km/h 2mph /  3.2km/h 82% 0.00in /  0mm 4 W/m2
05:10 49.7 °F /  9.8 °C 45.1 °F /  7.3 °C 30.08in /  1018.5hPa North 1mph /  1.6km/h 2mph /  3.2km/h 84% 0.00in /  0mm 10 W/m2
05:20 49.2 °F /  9.6 °C 44.6 °F /  7 °C 30.09in /  1018.8hPa NNW 1mph /  1.6km/h 3mph /  4.8km/h 84% 0.00in /  0mm 17 W/m2
05:30 48.6 °F /  9.2 °C 43.9 °F /  6.6 °C 30.09in /  1018.8hPa WNW 1mph /  1.6km/h 3mph /  4.8km/h 84% 0.00in /  0mm 25 W/m2
05:40 48.1 °F /  8.9 °C 43.5 °F /  6.4 °C 30.09in /  1018.8hPa NNW 2mph /  3.2km/h 3mph /  4.8km/h 84% 0.00in /  0mm 32 W/m2
05:50 48 °F /  8.9 °C 43.7 °F /  6.5 °C 30.09in /  1018.8hPa North 2mph /  3.2km/h 3mph /  4.8km/h 85% 0.00in /  0mm 40 W/m2
06:00 48.4 °F /  9.1 °C 44.1 °F /  6.7 °C 30.09in /  1018.8hPa Calm   2mph /  3.2km/h 85% 0.00in /  0mm 82 W/m2
06:10 48.4 °F /  9.1 °C 44.4 °F /  6.9 °C 30.09in /  1018.8hPa NNW 1mph /  1.6km/h 2mph /  3.2km/h 86% 0.00in /  0mm 68 W/m2
06:20 48.6 °F /  9.2 °C 44.6 °F /  7 °C 30.10in /  1019.2hPa Calm   2mph /  3.2km/h 86% 0.00in /  0mm 144 W/m2
06:30 49 °F /  9.4 °C 45 °F /  7.2 °C 30.10in /  1019.2hPa Calm   2mph /  3.2km/h 86% 0.00in /  0mm 111 W/m2
06:40 49.5 °F /  9.7 °C 45.4 °F /  7.4 °C 30.10in /  1019.2hPa Calm     86% 0.00in /  0mm 201 W/m2
06:50 50 °F /  10 °C 46 °F /  7.8 °C 30.10in /  1019.2hPa NNE 1mph /  1.6km/h 3mph /  4.8km/h 86% 0.00in /  0mm 238 W/m2
07:00 50.9 °F /  10.5 °C 47.5 °F /  8.6 °C 30.11in /  1019.5hPa Calm   4mph /  6.4km/h 88% 0.00in /  0mm 271 W/m2
07:10 51.7 °F /  10.9 °C 47 °F /  8.3 °C 30.10in /  1019.2hPa NE 3mph /  4.8km/h 6mph /  9.7km/h 84% 0.00in /  0mm 313 W/m2
07:20 53 °F /  11.7 °C 48.3 °F /  9.1 °C 30.10in /  1019.2hPa NE 2mph /  3.2km/h 5mph /  8km/h 84% 0.00in /  0mm 347 W/m2
07:30 54.2 °F /  12.3 °C 49.2 °F /  9.6 °C 30.10in /  1019.2hPa ENE 2mph /  3.2km/h 6mph /  9.7km/h 83% 0.00in /  0mm 383 W/m2
07:40 55.4 °F /  13 °C 50 °F /  10 °C 30.10in /  1019.2hPa ENE 3mph /  4.8km/h 5mph /  8km/h 82% 0.00in /  0mm 418 W/m2
07:50 56.8 °F /  13.8 °C 50.7 °F /  10.4 °C 30.10in /  1019.2hPa ENE 1mph /  1.6km/h 4mph /  6.4km/h 80% 0.00in /  0mm 456 W/m2
Knjazevac, Serbia
Compliments of Weather Underground - 2 mb